Time;durP1;ratioP1;P1;durP2;ratioP2;P2;SDS_P1;SDS_P2;PMS_P1;PMS_P2;Temp;Humidity;BMP_temperature;BMP_pressure;BME280_temperature;BME280_humidity;BME280_pressure;Samples;Min_cycle;Max_cycle;Signal;HPM_P1;HPM_P2
2023/07/19 00:02:13;;;;;;;8.43;2.83;;;17.10;99.90;;;;;;5010302;28;20056;-89
2023/07/19 00:04:38;;;;;;;12.80;3.55;;;17.00;99.90;;;;;;5010637;28;20040;-90
2023/07/19 00:07:04;;;;;;;8.02;3.15;;;17.10;99.90;;;;;;5024078;28;20040;-89
2023/07/19 00:09:30;;;;;;;7.93;2.97;;;17.00;99.90;;;;;;4992975;28;20131;-88
2023/07/19 00:11:56;;;;;;;8.15;2.97;;;17.00;99.90;;;;;;5010117;28;20045;-89
2023/07/19 00:14:21;;;;;;;7.82;3.08;;;17.00;99.90;;;;;;5006861;28;20048;-89
2023/07/19 00:16:47;;;;;;;10.57;3.10;;;17.00;99.90;;;;;;5027915;28;20076;-90
2023/07/19 00:19:13;;;;;;;8.93;3.33;;;17.00;99.90;;;;;;5030141;28;20103;-90
2023/07/19 00:21:39;;;;;;;8.48;3.22;;;17.00;99.90;;;;;;5006827;28;20131;-89
2023/07/19 00:24:05;;;;;;;8.07;3.30;;;17.00;99.90;;;;;;5011074;28;20041;-90
2023/07/19 00:26:30;;;;;;;8.30;3.47;;;17.00;99.90;;;;;;5023066;28;20033;-90
2023/07/19 00:28:57;;;;;;;8.73;3.47;;;17.00;99.90;;;;;;5009874;28;20038;-90
2023/07/19 00:31:22;;;;;;;9.98;3.22;;;17.20;99.90;;;;;;5006793;28;20057;-90
2023/07/19 00:33:48;;;;;;;7.72;3.15;;;17.00;99.90;;;;;;5018765;28;20515;-90
2023/07/19 00:36:14;;;;;;;8.75;3.38;;;16.90;99.90;;;;;;4993204;28;20156;-89
2023/07/19 00:38:40;;;;;;;11.02;3.92;;;16.90;99.90;;;;;;5009087;28;20041;-90
2023/07/19 00:41:06;;;;;;;10.18;3.58;;;16.90;99.90;;;;;;5019379;28;20041;-90
2023/07/19 00:43:31;;;;;;;8.77;3.60;;;16.90;99.90;;;;;;5027238;28;20033;-91
2023/07/19 00:45:57;;;;;;;8.40;3.60;;;16.90;99.90;;;;;;5006038;28;20033;-90
2023/07/19 00:48:24;;;;;;;8.57;3.70;;;16.90;99.90;;;;;;5010947;28;20072;-90
2023/07/19 00:50:52;;;;;;;7.93;3.50;;;16.90;99.90;;;;;;5013811;28;20052;-91
2023/07/19 00:53:19;;;;;;;8.48;3.10;;;16.90;99.90;;;;;;5042036;28;20064;-90
2023/07/19 00:55:49;;;;;;;8.30;3.60;;;16.90;99.90;;;;;;5012215;28;20045;-90
2023/07/19 00:58:16;;;;;;;9.95;3.80;;;16.90;99.90;;;;;;5028452;28;20505;-90
2023/07/19 01:00:42;;;;;;;8.13;3.72;;;16.90;99.90;;;;;;5013049;28;20037;-90
2023/07/19 01:03:08;;;;;;;8.45;3.72;;;16.90;99.90;;;;;;5012173;28;20036;-91
2023/07/19 01:05:34;;;;;;;8.77;3.35;;;16.90;99.90;;;;;;5029866;28;20033;-90
2023/07/19 01:08:00;;;;;;;7.88;3.80;;;16.90;99.90;;;;;;5021399;28;21408;-90
2023/07/19 01:10:26;;;;;;;9.43;4.00;;;16.90;99.90;;;;;;5012041;28;20043;-90
2023/07/19 01:13:06;;;;;;;11.02;4.30;;;16.90;99.90;;;;;;5020460;28;20095;-90
2023/07/19 01:15:31;;;;;;;9.90;3.97;;;16.90;99.90;;;;;;5016351;28;20127;-89
2023/07/19 01:17:57;;;;;;;9.38;3.92;;;16.80;99.90;;;;;;4997772;28;20148;-90
2023/07/19 01:20:23;;;;;;;9.75;4.22;;;16.80;99.90;;;;;;5012550;28;20164;-90
2023/07/19 01:22:48;;;;;;;9.60;4.07;;;16.90;99.90;;;;;;5012071;28;20059;-90
2023/07/19 01:25:14;;;;;;;8.63;3.97;;;16.90;99.90;;;;;;4995444;28;20045;-91
2023/07/19 01:27:40;;;;;;;9.40;4.25;;;16.90;99.90;;;;;;5030057;28;20040;-90
2023/07/19 01:30:07;;;;;;;8.02;3.95;;;17.40;99.90;;;;;;5045270;28;20051;-89
2023/07/19 01:32:33;;;;;;;9.80;3.97;;;16.90;99.90;;;;;;5011579;28;20398;-90
2023/07/19 01:34:58;;;;;;;10.20;4.10;;;16.90;99.90;;;;;;5026481;28;20049;-90
2023/07/19 01:37:24;;;;;;;10.65;4.28;;;18.20;99.90;;;;;;5033678;28;20154;-89
2023/07/19 01:39:50;;;;;;;8.60;3.97;;;16.90;99.90;;;;;;5015127;28;20048;-90
2023/07/19 01:42:16;;;;;;;9.90;4.35;;;16.90;99.90;;;;;;4995540;28;20068;-90
2023/07/19 01:44:42;;;;;;;9.02;4.40;;;16.90;99.90;;;;;;5011713;28;20049;-90
2023/07/19 01:47:09;;;;;;;11.10;4.68;;;16.90;99.90;;;;;;5010308;28;20035;-90
2023/07/19 01:49:35;;;;;;;9.70;4.40;;;16.90;99.90;;;;;;5021830;28;20099;-89
2023/07/19 01:52:00;;;;;;;11.30;4.97;;;16.90;99.90;;;;;;5006876;28;20127;-90
2023/07/19 01:54:26;;;;;;;8.80;4.47;;;16.90;99.90;;;;;;5010487;28;20129;-90
2023/07/19 01:56:52;;;;;;;10.45;4.55;;;16.90;99.90;;;;;;5006735;28;20535;-90
2023/07/19 01:59:18;;;;;;;10.15;4.03;;;17.00;99.90;;;;;;5008425;28;20094;-90
2023/07/19 02:01:44;;;;;;;9.40;4.32;;;17.00;99.90;;;;;;5006924;28;20045;-91
2023/07/19 02:04:09;;;;;;;11.77;4.97;;;16.90;99.90;;;;;;5012855;28;20120;-90
2023/07/19 02:06:35;;;;;;;10.48;4.57;;;16.90;99.90;;;;;;5025876;28;20148;-90
2023/07/19 02:09:01;;;;;;;10.32;4.68;;;16.90;99.90;;;;;;5012694;28;20497;-90
2023/07/19 02:11:27;;;;;;;11.13;4.65;;;16.90;99.90;;;;;;5018113;28;20044;-90
2023/07/19 02:13:52;;;;;;;9.57;4.80;;;16.90;99.90;;;;;;4997607;28;20056;-89
2023/07/19 02:16:18;;;;;;;10.20;4.55;;;16.90;99.90;;;;;;5029015;28;20055;-91
2023/07/19 02:18:44;;;;;;;12.10;4.50;;;16.90;99.90;;;;;;5011651;28;20099;-91
2023/07/19 02:21:09;;;;;;;11.13;4.50;;;16.90;99.90;;;;;;5011541;28;20033;-90
2023/07/19 02:23:35;;;;;;;8.52;4.22;;;16.90;99.90;;;;;;4997370;28;20496;-91
2023/07/19 02:26:01;;;;;;;10.75;4.80;;;16.90;99.90;;;;;;5009883;28;20050;-90
2023/07/19 02:28:26;;;;;;;10.60;4.40;;;16.90;99.90;;;;;;5027091;28;20041;-90
2023/07/19 02:30:52;;;;;;;9.65;4.88;;;16.90;99.90;;;;;;4996314;28;20044;-90
2023/07/19 02:33:18;;;;;;;10.35;4.53;;;16.90;99.90;;;;;;4997850;28;20141;-90
2023/07/19 02:35:43;;;;;;;11.77;4.60;;;16.90;99.90;;;;;;5010650;28;20114;-91
2023/07/19 02:38:10;;;;;;;10.57;4.55;;;16.80;99.90;;;;;;5028675;28;20072;-90
2023/07/19 02:40:36;;;;;;;10.40;4.45;;;16.80;99.90;;;;;;5014063;28;20033;-89
2023/07/19 02:43:02;;;;;;;10.65;4.55;;;16.80;99.90;;;;;;5025493;28;20059;-90
2023/07/19 02:45:28;;;;;;;11.27;4.97;;;16.90;99.90;;;;;;5027102;28;20548;-90
2023/07/19 02:47:54;;;;;;;8.57;4.05;;;16.90;99.90;;;;;;5009666;28;20039;-91
2023/07/19 02:50:20;;;;;;;9.93;4.50;;;16.80;99.90;;;;;;5027819;28;20037;-89
2023/07/19 02:52:46;;;;;;;9.80;4.60;;;16.80;99.90;;;;;;5027139;28;20045;-90
2023/07/19 02:55:12;;;;;;;10.73;4.72;;;16.80;99.90;;;;;;5012284;28;20083;-90
2023/07/19 02:57:38;;;;;;;10.02;4.63;;;16.80;99.90;;;;;;5007605;28;20049;-90
2023/07/19 03:00:06;;;;;;;9.57;4.75;;;16.80;99.90;;;;;;5017550;28;20107;-90
2023/07/19 03:02:32;;;;;;;10.10;4.60;;;16.80;99.90;;;;;;4989311;28;20045;-90
2023/07/19 03:04:58;;;;;;;9.85;3.67;;;16.70;99.90;;;;;;5012184;28;20064;-90
2023/07/19 03:07:24;;;;;;;9.32;4.47;;;16.80;99.90;;;;;;5007256;28;20119;-90
2023/07/19 03:09:50;;;;;;;10.25;4.57;;;16.80;99.90;;;;;;5027802;28;20127;-89
2023/07/19 03:12:17;;;;;;;9.57;4.57;;;16.80;99.90;;;;;;5043572;28;20159;-89
2023/07/19 03:14:43;;;;;;;10.13;4.70;;;16.80;99.90;;;;;;5024550;28;20048;-90
2023/07/19 03:17:08;;;;;;;12.18;5.05;;;16.80;99.90;;;;;;5008393;28;20063;-90
2023/07/19 03:19:35;;;;;;;9.75;4.47;;;16.80;99.90;;;;;;5002774;28;20119;-90
2023/07/19 03:22:02;;;;;;;10.98;4.55;;;16.80;99.90;;;;;;5039527;28;20036;-91
2023/07/19 03:24:28;;;;;;;10.40;4.70;;;16.70;99.90;;;;;;5021531;28;20037;-90
2023/07/19 03:26:53;;;;;;;10.45;4.60;;;16.70;99.90;;;;;;5012263;28;20082;-90
2023/07/19 03:29:19;;;;;;;13.20;5.28;;;16.80;99.90;;;;;;5010708;28;20425;-90
2023/07/19 03:31:45;;;;;;;11.25;4.53;;;16.80;99.90;;;;;;5006119;28;20296;-90
2023/07/19 03:34:11;;;;;;;10.20;4.63;;;16.80;99.90;;;;;;5023343;28;20301;-90
2023/07/19 03:36:37;;;;;;;10.90;4.60;;;16.80;99.90;;;;;;4994351;28;20064;-89
2023/07/19 03:39:03;;;;;;;10.27;4.40;;;16.70;99.90;;;;;;4995437;28;20072;-89
2023/07/19 03:41:29;;;;;;;10.70;4.18;;;16.80;99.90;;;;;;5040017;28;20497;-90
2023/07/19 03:43:55;;;;;;;12.00;5.05;;;16.80;99.90;;;;;;5001063;28;20034;-89
2023/07/19 03:46:21;;;;;;;10.20;4.30;;;16.80;99.90;;;;;;5010745;28;20029;-90
2023/07/19 03:48:46;;;;;;;9.90;4.53;;;16.80;99.90;;;;;;5010222;28;20120;-90
2023/07/19 03:51:12;;;;;;;10.30;4.70;;;16.80;99.90;;;;;;5009554;28;20048;-89
2023/07/19 03:53:38;;;;;;;11.10;4.68;;;16.80;99.90;;;;;;4994225;28;20119;-89
2023/07/19 03:56:03;;;;;;;8.63;4.05;;;16.40;99.90;;;;;;5010338;28;20041;-90
2023/07/19 03:58:30;;;;;;;9.98;4.40;;;16.70;99.90;;;;;;5023469;28;20048;-89
2023/07/19 04:00:58;;;;;;;11.45;5.00;;;16.70;99.90;;;;;;5021460;28;20218;-90
2023/07/19 04:03:26;;;;;;;9.02;4.15;;;16.70;99.90;;;;;;5014719;28;20036;-89
2023/07/19 04:05:54;;;;;;;9.85;4.70;;;16.00;99.90;;;;;;5011534;28;20131;-90
2023/07/19 04:08:20;;;;;;;10.38;4.53;;;16.70;99.90;;;;;;5046245;28;20048;-89
2023/07/19 04:10:46;;;;;;;10.35;4.80;;;16.70;99.90;;;;;;5027735;28;20404;-90
2023/07/19 04:13:13;;;;;;;10.75;4.53;;;16.70;99.90;;;;;;5033761;28;20095;-90
2023/07/19 04:15:39;;;;;;;10.80;4.57;;;16.70;99.90;;;;;;5011339;28;20037;-89
2023/07/19 04:18:05;;;;;;;10.82;4.57;;;16.70;99.90;;;;;;5016802;28;20195;-90
2023/07/19 04:20:32;;;;;;;10.02;4.60;;;16.70;99.90;;;;;;4993442;28;20048;-89
2023/07/19 04:22:57;;;;;;;10.45;4.50;;;16.70;99.90;;;;;;5019684;28;20048;-90
2023/07/19 04:25:24;;;;;;;10.65;4.57;;;16.70;99.90;;;;;;5019036;28;20829;-89
2023/07/19 04:27:51;;;;;;;10.88;4.30;;;16.70;99.90;;;;;;5025941;28;20032;-90
2023/07/19 04:30:17;;;;;;;9.30;4.40;;;16.70;99.90;;;;;;5044865;28;20577;-90
2023/07/19 04:32:43;;;;;;;13.02;5.03;;;16.80;99.90;;;;;;5029153;28;20127;-90
2023/07/19 04:35:09;;;;;;;10.30;4.85;;;16.80;99.90;;;;;;5026672;28;20125;-90
2023/07/19 04:37:35;;;;;;;9.88;4.63;;;16.80;99.90;;;;;;5021037;28;20397;-90
2023/07/19 04:40:01;;;;;;;10.63;5.07;;;16.80;99.90;;;;;;5001011;28;20037;-90
2023/07/19 04:42:28;;;;;;;10.10;4.85;;;16.80;99.90;;;;;;5026576;28;20041;-90
2023/07/19 04:44:54;;;;;;;12.23;5.13;;;16.80;99.90;;;;;;5024840;28;20121;-90
2023/07/19 04:47:20;;;;;;;10.13;5.07;;;16.80;99.90;;;;;;5038890;28;20108;-89
2023/07/19 04:49:45;;;;;;;10.95;5.50;;;16.80;99.90;;;;;;5010311;28;20092;-90
2023/07/19 04:52:11;;;;;;;11.13;5.47;;;16.80;99.90;;;;;;5008480;28;20888;-90
2023/07/19 04:54:37;;;;;;;11.82;5.30;;;16.80;99.90;;;;;;5022847;28;20045;-89
2023/07/19 04:57:03;;;;;;;11.38;5.45;;;16.80;99.90;;;;;;5011278;28;20546;-91
2023/07/19 04:59:28;;;;;;;10.77;5.80;;;16.90;99.90;;;;;;5004611;28;20497;-90
2023/07/19 05:01:54;;;;;;;12.15;6.20;;;16.90;99.90;;;;;;5045312;28;20050;-90
2023/07/19 05:04:20;;;;;;;10.43;5.47;;;16.90;99.90;;;;;;5026906;28;20489;-90
2023/07/19 05:06:46;;;;;;;12.52;5.80;;;16.90;99.90;;;;;;4996213;28;20276;-90
2023/07/19 05:09:12;;;;;;;12.98;5.55;;;16.90;99.90;;;;;;5025979;28;20294;-89
2023/07/19 05:11:39;;;;;;;12.00;5.70;;;16.90;99.90;;;;;;5012535;28;20397;-89
2023/07/19 05:14:05;;;;;;;12.00;5.82;;;16.90;99.90;;;;;;5020807;28;20590;-90
2023/07/19 05:16:33;;;;;;;11.38;5.78;;;16.90;99.90;;;;;;5027868;28;20029;-89
2023/07/19 05:18:58;;;;;;;13.07;5.95;;;17.00;99.90;;;;;;5019835;28;20146;-89
2023/07/19 05:21:24;;;;;;;11.82;5.60;;;17.00;99.90;;;;;;5007230;28;20240;-90
2023/07/19 05:23:50;;;;;;;12.63;5.72;;;16.90;99.90;;;;;;5009481;28;20037;-90
2023/07/19 05:26:16;;;;;;;10.93;5.40;;;17.90;99.90;;;;;;5040900;28;20037;-89
2023/07/19 05:28:42;;;;;;;10.30;5.43;;;17.00;99.90;;;;;;4990765;28;20166;-90
2023/07/19 05:31:08;;;;;;;10.38;5.55;;;17.00;99.90;;;;;;5025585;28;20402;-89
2023/07/19 05:33:34;;;;;;;12.55;5.90;;;17.00;99.90;;;;;;4999934;28;20167;-89
2023/07/19 05:36:01;;;;;;;10.73;5.57;;;17.00;99.90;;;;;;5016891;28;20558;-89
2023/07/19 05:38:27;;;;;;;12.75;5.63;;;17.00;99.90;;;;;;5032979;28;20041;-90
2023/07/19 05:41:02;;;;;;;10.85;5.50;;;17.10;99.90;;;;;;5016824;28;20037;-90
2023/07/19 05:43:28;;;;;;;12.73;6.03;;;17.10;99.90;;;;;;5014008;28;20529;-91
2023/07/19 05:46:10;;;;;;;10.25;5.47;;;17.10;99.90;;;;;;5033851;28;20029;-89
2023/07/19 05:48:36;;;;;;;10.80;5.15;;;17.10;99.90;;;;;;5028264;28;20060;-91
2023/07/19 05:51:04;;;;;;;13.13;5.53;;;17.10;99.90;;;;;;5016994;28;20401;-90
2023/07/19 05:53:30;;;;;;;10.27;5.30;;;17.10;99.90;;;;;;5013891;28;20079;-90
2023/07/19 05:55:56;;;;;;;9.65;4.93;;;17.10;99.90;;;;;;5030781;28;20048;-90
2023/07/19 05:58:22;;;;;;;11.27;4.90;;;17.10;99.90;;;;;;5017208;28;20079;-90
2023/07/19 06:00:49;;;;;;;12.00;5.63;;;17.10;99.90;;;;;;5017280;28;20041;-90
2023/07/19 06:03:18;;;;;;;12.43;5.50;;;17.10;99.90;;;;;;5050524;28;20041;-90
2023/07/19 06:05:44;;;;;;;13.13;5.68;;;17.10;99.90;;;;;;5028542;28;20040;-89
2023/07/19 06:08:11;;;;;;;10.82;5.13;;;17.10;99.90;;;;;;5032221;28;20036;-90
2023/07/19 06:10:37;;;;;;;10.10;5.28;;;17.10;99.90;;;;;;5024922;28;20127;-88
2023/07/19 06:13:03;;;;;;;10.98;5.18;;;17.10;99.90;;;;;;5036029;28;20065;-91
2023/07/19 06:15:33;;;;;;;11.63;4.75;;;17.10;99.90;;;;;;5025055;28;20159;-91
2023/07/19 06:18:00;;;;;;;10.55;4.15;;;17.20;99.90;;;;;;5019262;28;20071;-89
2023/07/19 06:20:26;;;;;;;10.50;3.60;;;17.20;99.90;;;;;;5003904;28;20244;-87
2023/07/19 06:22:52;;;;;;;10.13;3.45;;;17.20;99.90;;;;;;5014427;28;20037;-86
2023/07/19 06:25:18;;;;;;;9.68;3.30;;;17.10;99.90;;;;;;5021921;28;20047;-90
2023/07/19 06:27:43;;;;;;;8.45;2.90;;;17.10;99.90;;;;;;5024911;28;20043;-88
2023/07/19 06:30:10;;;;;;;9.80;3.53;;;17.10;99.90;;;;;;5010756;28;20105;-89
2023/07/19 06:32:36;;;;;;;7.95;2.90;;;17.00;99.90;;;;;;5022831;28;20044;-89
2023/07/19 06:35:03;;;;;;;10.35;3.05;;;16.90;99.90;;;;;;5023532;28;20036;-89
2023/07/19 06:37:29;;;;;;;9.90;2.80;;;16.90;99.90;;;;;;5025453;28;20036;-88
2023/07/19 06:39:55;;;;;;;7.70;2.58;;;16.80;99.90;;;;;;5007277;28;20040;-89
2023/07/19 06:42:20;;;;;;;8.10;2.70;;;16.80;99.90;;;;;;5013495;28;20036;-88
2023/07/19 06:44:47;;;;;;;10.30;2.67;;;16.80;99.90;;;;;;5023310;28;20037;-88
2023/07/19 06:47:14;;;;;;;7.10;2.28;;;16.80;99.90;;;;;;5022486;28;20044;-88
2023/07/19 06:49:40;;;;;;;7.75;2.30;;;16.80;99.90;;;;;;4994027;28;20493;-88
2023/07/19 06:52:06;;;;;;;6.68;2.00;;;16.80;99.90;;;;;;5016383;28;20059;-90
2023/07/19 06:54:32;;;;;;;6.40;2.05;;;16.80;99.90;;;;;;5027629;28;20396;-89
2023/07/19 06:56:58;;;;;;;9.18;1.92;;;16.80;99.90;;;;;;5019110;28;20047;-88
2023/07/19 06:59:24;;;;;;;7.28;2.08;;;16.80;99.90;;;;;;5005881;28;20121;-88
2023/07/19 07:01:49;;;;;;;6.20;2.10;;;16.90;99.90;;;;;;5039455;28;20046;-88
2023/07/19 07:04:15;;;;;;;7.63;1.92;;;17.00;99.90;;;;;;5027442;28;20033;-89
2023/07/19 07:06:41;;;;;;;7.15;2.10;;;17.00;99.90;;;;;;5006431;28;20063;-88
2023/07/19 07:09:07;;;;;;;8.43;2.08;;;17.10;99.90;;;;;;5009512;28;20043;-89
2023/07/19 07:11:32;;;;;;;8.70;2.10;;;17.20;99.90;;;;;;5011415;28;20276;-87
2023/07/19 07:13:58;;;;;;;8.18;2.20;;;17.20;99.90;;;;;;4995344;28;20068;-88
2023/07/19 07:16:24;;;;;;;7.78;2.30;;;17.50;99.90;;;;;;5023961;28;20124;-89
2023/07/19 07:18:50;;;;;;;11.18;2.80;;;17.40;99.90;;;;;;5011555;28;20076;-89
2023/07/19 07:21:16;;;;;;;11.20;2.70;;;17.50;99.90;;;;;;5024393;28;20029;-88
2023/07/19 07:23:43;;;;;;;7.78;2.65;;;17.50;99.90;;;;;;5019957;28;20057;-89
2023/07/19 07:26:08;;;;;;;11.15;2.50;;;17.60;99.90;;;;;;5027155;28;20091;-90
2023/07/19 07:28:34;;;;;;;10.38;2.60;;;17.60;99.90;;;;;;5008897;28;20501;-88
2023/07/19 07:31:06;;;;;;;10.73;3.20;;;17.70;99.90;;;;;;5024987;28;20045;-90
2023/07/19 07:33:32;;;;;;;9.45;2.28;;;17.80;99.90;;;;;;5041310;28;20032;-87
2023/07/19 07:35:57;;;;;;;8.45;2.30;;;17.80;99.90;;;;;;5024842;28;20036;-88
2023/07/19 07:38:23;;;;;;;9.23;2.47;;;17.90;99.90;;;;;;4994191;28;20052;-90
2023/07/19 07:40:49;;;;;;;7.50;2.47;;;17.90;99.90;;;;;;5010271;28;20037;-88
2023/07/19 07:43:15;;;;;;;6.88;2.25;;;18.50;99.90;;;;;;4995204;28;20472;-89
2023/07/19 07:45:40;;;;;;;7.25;2.30;;;17.90;99.90;;;;;;5040802;28;20032;-90
2023/07/19 07:48:06;;;;;;;6.63;1.98;;;18.00;99.90;;;;;;5008508;28;20037;-89
2023/07/19 07:50:32;;;;;;;7.20;2.25;;;18.10;99.90;;;;;;5009148;28;20044;-90
2023/07/19 07:52:58;;;;;;;9.02;2.20;;;18.10;99.90;;;;;;5018185;28;20037;-87
2023/07/19 07:55:24;;;;;;;8.48;2.05;;;18.10;99.90;;;;;;5008280;28;20040;-89
2023/07/19 07:57:49;;;;;;;8.82;2.00;;;18.10;99.90;;;;;;4993233;28;20102;-89
2023/07/19 08:00:17;;;;;;;9.32;2.15;;;18.10;99.90;;;;;;5023142;28;20049;-87
2023/07/19 08:02:43;;;;;;;7.28;2.00;;;18.20;99.90;;;;;;5020688;28;20053;-87
2023/07/19 08:05:09;;;;;;;7.60;2.30;;;18.30;99.90;;;;;;5018727;28;20037;-87
2023/07/19 08:07:35;;;;;;;8.30;1.88;;;18.30;99.90;;;;;;5047579;28;20044;-89
2023/07/19 08:10:01;;;;;;;6.88;1.80;;;18.40;99.90;;;;;;4999974;28;20037;-88
2023/07/19 08:12:27;;;;;;;9.75;2.30;;;18.40;99.90;;;;;;5008418;28;20493;-87
2023/07/19 08:14:53;;;;;;;8.07;2.00;;;18.50;99.90;;;;;;5019040;28;20045;-86
2023/07/19 08:17:19;;;;;;;5.72;1.90;;;18.50;99.90;;;;;;5030614;28;20539;-88
2023/07/19 08:19:45;;;;;;;8.35;2.30;;;18.50;99.90;;;;;;5019291;28;20047;-88
2023/07/19 08:22:24;;;;;;;7.85;1.88;;;18.50;99.90;;;;;;5006505;28;20038;-88
2023/07/19 08:24:50;;;;;;;8.65;2.10;;;18.50;99.90;;;;;;5034805;28;20563;-88
2023/07/19 08:27:16;;;;;;;8.45;2.17;;;18.50;99.90;;;;;;5019065;28;20037;-88
2023/07/19 08:29:41;;;;;;;7.28;1.85;;;18.50;99.90;;;;;;5013294;28;20040;-88
2023/07/19 08:32:07;;;;;;;9.15;1.95;;;18.60;99.90;;;;;;5030815;28;20512;-88
2023/07/19 08:34:33;;;;;;;7.22;1.85;;;18.60;99.90;;;;;;5027318;28;20507;-89
2023/07/19 08:36:59;;;;;;;7.63;2.10;;;18.60;99.90;;;;;;5033011;28;20405;-88
2023/07/19 08:39:27;;;;;;;9.30;2.10;;;18.70;99.90;;;;;;5035337;28;20041;-89
2023/07/19 08:41:53;;;;;;;7.15;1.80;;;18.10;99.90;;;;;;5018625;28;20158;-89
2023/07/19 08:44:22;;;;;;;7.60;1.85;;;18.90;99.90;;;;;;5034903;28;20040;-88
2023/07/19 08:46:49;;;;;;;9.25;2.10;;;19.30;99.90;;;;;;5066788;28;20051;-89
2023/07/19 08:49:18;;;;;;;8.52;2.25;;;19.60;99.90;;;;;;5024611;28;20043;-89
2023/07/19 08:51:45;;;;;;;7.45;2.10;;;19.90;99.90;;;;;;5056510;28;20110;-88
2023/07/19 08:54:11;;;;;;;8.05;2.20;;;20.20;99.90;;;;;;5023376;28;20041;-90
2023/07/19 08:56:38;;;;;;;7.45;2.10;;;20.30;99.90;;;;;;5050742;28;20447;-89
2023/07/19 08:59:05;;;;;;;7.78;2.20;;;20.30;99.90;;;;;;5033398;28;20508;-92
2023/07/19 09:01:31;;;;;;;6.68;2.00;;;20.50;99.90;;;;;;5007776;28;20133;-88
2023/07/19 09:03:57;;;;;;;8.30;2.08;;;20.60;99.90;;;;;;5037958;28;20056;-88
2023/07/19 09:06:32;;;;;;;6.78;1.98;;;20.60;99.90;;;;;;5012142;28;20474;-89
2023/07/19 09:08:59;;;;;;;7.13;2.10;;;20.70;99.90;;;;;;5032044;28;20041;-88
2023/07/19 09:11:24;;;;;;;7.18;2.08;;;20.80;99.90;;;;;;4997857;28;20030;-89
2023/07/19 09:13:53;;;;;;;5.30;1.80;;;21.00;99.90;;;;;;5031037;28;20047;-89
2023/07/19 09:16:26;;;;;;;7.43;1.95;;;21.00;99.90;;;;;;5033533;28;20048;-88
2023/07/19 09:18:53;;;;;;;7.28;1.98;;;20.80;99.90;;;;;;5018085;28;20460;-88
2023/07/19 09:21:42;;;;;;;8.10;1.90;;;20.50;99.90;;;;;;5051117;28;20037;-89
2023/07/19 09:24:09;;;;;;;6.78;1.80;;;20.20;99.90;;;;;;5029437;28;20045;-88
2023/07/19 09:26:47;;;;;;;6.15;1.77;;;20.00;99.90;;;;;;5026722;28;20640;-89
2023/07/19 09:29:12;;;;;;;8.15;2.25;;;19.80;99.90;;;;;;5022230;28;20045;-89
2023/07/19 09:32:02;;;;;;;8.13;2.20;;;19.80;99.90;;;;;;5041975;28;20532;-89
2023/07/19 09:34:34;;;;;;;7.10;2.58;;;19.60;99.90;;;;;;5016254;28;20047;-88
2023/07/19 09:37:01;;;;;;;7.35;2.40;;;19.50;99.90;;;;;;5048188;28;20074;-88
2023/07/19 09:39:27;;;;;;;8.10;2.20;;;19.50;99.90;;;;;;5034382;28;20037;-88
2023/07/19 09:41:54;;;;;;;6.28;2.03;;;19.50;99.90;;;;;;5017970;28;20049;-90
2023/07/19 09:44:21;;;;;;;8.23;2.20;;;19.50;99.90;;;;;;5033937;28;20055;-88
2023/07/19 09:46:48;;;;;;;6.28;1.98;;;19.60;99.90;;;;;;5016269;28;20037;-89
2023/07/19 09:49:14;;;;;;;7.25;2.20;;;19.70;99.90;;;;;;5016559;28;20039;-88
2023/07/19 09:51:43;;;;;;;7.53;2.28;;;19.80;99.90;;;;;;5033977;28;20120;-88
2023/07/19 09:54:12;;;;;;;6.78;2.00;;;19.70;99.90;;;;;;5033742;28;20053;-88
2023/07/19 09:56:38;;;;;;;7.75;2.33;;;19.70;99.90;;;;;;5032579;28;20037;-89
2023/07/19 09:59:29;;;;;;;7.15;2.20;;;19.60;99.90;;;;;;5015236;28;20048;-88
2023/07/19 10:01:55;;;;;;;6.57;2.00;;;19.70;99.90;;;;;;5016640;28;20083;-88
2023/07/19 10:04:26;;;;;;;6.55;2.00;;;19.70;99.90;;;;;;5024574;28;20079;-88
2023/07/19 10:07:02;;;;;;;6.72;2.00;;;19.70;99.90;;;;;;5014489;28;20052;-88
2023/07/19 10:09:32;;;;;;;8.95;2.13;;;19.60;99.90;;;;;;5032888;28;20041;-89
2023/07/19 10:12:05;;;;;;;7.07;2.00;;;19.60;99.90;;;;;;5047741;28;20128;-88
2023/07/19 10:14:32;;;;;;;7.25;1.85;;;19.60;99.90;;;;;;5034013;28;20059;-88
2023/07/19 10:17:03;;;;;;;6.72;1.92;;;19.50;99.90;;;;;;5029006;28;20170;-88
2023/07/19 10:19:29;;;;;;;7.95;2.40;;;19.50;99.90;;;;;;5046503;28;20053;-89
2023/07/19 10:22:03;;;;;;;5.93;2.08;;;19.50;99.90;;;;;;5024823;28;20037;-91
2023/07/19 10:24:31;;;;;;;7.32;1.98;;;19.70;99.90;;;;;;5025736;28;20477;-88
2023/07/19 10:27:08;;;;;;;5.65;1.83;;;20.10;99.90;;;;;;5027177;28;20548;-92
2023/07/19 10:29:45;;;;;;;7.20;2.05;;;20.30;99.90;;;;;;5042745;28;20037;-89
2023/07/19 10:32:11;;;;;;;5.07;1.60;;;20.30;99.90;;;;;;5027053;28;20068;-88
2023/07/19 10:34:37;;;;;;;5.95;1.88;;;20.10;99.90;;;;;;5022255;28;20041;-88
2023/07/19 10:37:05;;;;;;;7.20;1.70;;;19.80;99.90;;;;;;5012484;28;20047;-89
2023/07/19 10:39:31;;;;;;;6.13;1.77;;;19.70;99.90;;;;;;5012905;28;21021;-87
2023/07/19 10:41:58;;;;;;;5.72;1.70;;;19.60;99.90;;;;;;4999938;28;20048;-89
2023/07/19 10:44:26;;;;;;;6.53;1.77;;;19.60;99.90;;;;;;5026499;28;20037;-87
2023/07/19 10:46:56;;;;;;;4.88;1.70;;;20.00;99.90;;;;;;5011750;28;20044;-87
2023/07/19 10:49:23;;;;;;;4.82;1.67;;;20.30;99.90;;;;;;5025176;28;20057;-89
2023/07/19 10:51:54;;;;;;;5.00;1.70;;;20.20;99.90;;;;;;5041136;28;20044;-91
2023/07/19 10:54:20;;;;;;;6.68;1.70;;;20.10;99.90;;;;;;5025539;28;20106;-89
2023/07/19 10:56:53;;;;;;;7.30;1.77;;;19.90;99.90;;;;;;5032744;28;20044;-90
2023/07/19 10:59:20;;;;;;;6.85;1.90;;;19.70;99.90;;;;;;5029484;28;20145;-89
2023/07/19 11:01:49;;;;;;;7.53;2.00;;;19.50;99.90;;;;;;5017897;28;20879;-88
2023/07/19 11:04:18;;;;;;;8.27;2.08;;;19.40;99.90;;;;;;4999403;28;20140;-91
2023/07/19 11:07:00;;;;;;;5.88;1.80;;;19.40;99.90;;;;;;5020585;28;20059;-88
2023/07/19 11:09:26;;;;;;;5.38;1.73;;;19.30;99.90;;;;;;5029865;28;20116;-89
2023/07/19 11:11:51;;;;;;;5.82;1.70;;;19.30;99.90;;;;;;5010096;28;20171;-88
2023/07/19 11:14:34;;;;;;;5.93;1.77;;;19.40;99.90;;;;;;5001340;28;20036;-88
2023/07/19 11:17:00;;;;;;;;;;;19.50;99.90;;;;;;5010534;28;20037;-88
2023/07/19 11:19:37;;;;;;;4.28;1.50;;;19.60;99.90;;;;;;5045621;28;19927;-87
2023/07/19 11:22:08;;;;;;;6.32;1.65;;;19.70;99.90;;;;;;5029435;28;20037;-91
2023/07/19 11:24:41;;;;;;;6.07;1.52;;;19.70;99.90;;;;;;5029509;28;20271;-91
2023/07/19 11:27:08;;;;;;;5.78;1.63;;;20.00;99.90;;;;;;5025867;28;20037;-87
2023/07/19 11:29:34;;;;;;;5.85;1.60;;;20.10;99.90;;;;;;4989438;28;20043;-89
2023/07/19 11:32:20;;;;;;;4.45;1.58;;;20.00;99.90;;;;;;5022343;28;20041;-89
2023/07/19 11:34:53;;;;;;;5.40;1.40;;;20.10;99.90;;;;;;5021114;28;20043;-89
2023/07/19 11:37:26;;;;;;;6.25;1.40;;;20.20;99.90;;;;;;5020642;28;20413;-87
2023/07/19 11:39:57;;;;;;;5.78;1.70;;;20.20;99.90;;;;;;5019534;28;20095;-90
2023/07/19 11:42:46;;;;;;;6.43;1.90;;;20.40;99.90;;;;;;5017609;28;20103;-90
2023/07/19 11:45:16;;;;;;;6.18;1.40;;;20.00;99.90;;;;;;5018603;28;20378;-90
2023/07/19 11:47:47;;;;;;;4.68;1.40;;;20.70;99.90;;;;;;5017342;28;20043;-90
2023/07/19 11:50:13;;;;;;;6.15;1.60;;;20.80;99.90;;;;;;5024698;28;20043;-91
2023/07/19 11:52:46;;;;;;;3.50;1.50;;;20.90;99.90;;;;;;5026029;28;20497;-91
2023/07/19 11:55:13;;;;;;;4.78;1.50;;;20.90;99.90;;;;;;5040094;28;20366;-89
2023/07/19 11:57:40;;;;;;;5.03;1.70;;;20.90;99.90;;;;;;5029026;28;20041;-89
2023/07/19 12:00:08;;;;;;;3.47;1.30;;;21.00;99.90;;;;;;5021398;28;20045;-90
2023/07/19 12:02:35;;;;;;;5.68;1.65;;;21.00;99.90;;;;;;5025811;28;20033;-90
2023/07/19 12:05:04;;;;;;;4.00;1.30;;;20.90;99.90;;;;;;4999699;28;20041;-91
2023/07/19 12:07:31;;;;;;;6.03;1.65;;;21.60;99.90;;;;;;5029379;28;20496;-90
2023/07/19 12:09:58;;;;;;;5.82;1.58;;;21.20;99.90;;;;;;4997592;28;20041;-88
2023/07/19 12:12:23;;;;;;;4.18;1.40;;;21.30;99.90;;;;;;5023983;28;20064;-89
2023/07/19 12:14:49;;;;;;;4.45;1.40;;;21.20;99.90;;;;;;5025185;28;20037;-87
2023/07/19 12:17:15;;;;;;;2.90;1.27;;;21.20;99.90;;;;;;5021854;28;20473;-88
2023/07/19 12:19:40;;;;;;;4.60;1.30;;;21.40;99.90;;;;;;5007307;28;20040;-91
2023/07/19 12:22:12;;;;;;;6.10;1.38;;;21.20;99.90;;;;;;5013617;28;20049;-90
2023/07/19 12:24:37;;;;;;;4.20;1.25;;;21.10;99.90;;;;;;4999363;28;20044;-89
2023/07/19 12:27:03;;;;;;;5.40;1.50;;;21.10;99.90;;;;;;5016893;28;20033;-90
2023/07/19 12:29:29;;;;;;;4.43;1.23;;;21.10;99.90;;;;;;5037391;28;20176;-91
2023/07/19 12:31:57;;;;;;;5.47;1.50;;;21.10;99.90;;;;;;5006786;28;20123;-91
2023/07/19 12:34:23;;;;;;;5.55;1.45;;;21.20;99.90;;;;;;4997504;28;20048;-87
2023/07/19 12:36:50;;;;;;;3.25;1.23;;;21.20;99.90;;;;;;5019002;28;20098;-89
2023/07/19 12:39:18;;;;;;;6.95;1.80;;;21.20;99.90;;;;;;5007826;28;20619;-91
2023/07/19 12:41:44;;;;;;;4.28;1.35;;;21.40;99.90;;;;;;5013391;28;20394;-90
2023/07/19 12:44:10;;;;;;;4.72;1.30;;;21.50;99.90;;;;;;5018065;28;20041;-91